sensor_id;sensor_type;location;lat;lon;timestamp;P1;durP1;ratioP1;P2;durP2;ratioP2
75626;SDS011;67372;49.404;11.034;2023-12-20T00:01:37;5.18;;;3.33;;
75626;SDS011;67372;49.404;11.034;2023-12-20T00:04:05;6.47;;;3.22;;
75626;SDS011;67372;49.404;11.034;2023-12-20T00:06:32;5.97;;;3.30;;
75626;SDS011;67372;49.404;11.034;2023-12-20T00:08:58;4.40;;;3.20;;
75626;SDS011;67372;49.404;11.034;2023-12-20T00:11:25;8.15;;;3.38;;
75626;SDS011;67372;49.404;11.034;2023-12-20T00:13:51;6.32;;;3.40;;
75626;SDS011;67372;49.404;11.034;2023-12-20T00:16:18;5.95;;;3.35;;
75626;SDS011;67372;49.404;11.034;2023-12-20T00:18:44;5.30;;;3.08;;
75626;SDS011;67372;49.404;11.034;2023-12-20T00:21:11;5.75;;;3.10;;
75626;SDS011;67372;49.404;11.034;2023-12-20T00:23:37;6.50;;;3.08;;
75626;SDS011;67372;49.404;11.034;2023-12-20T00:26:04;4.57;;;2.83;;
75626;SDS011;67372;49.404;11.034;2023-12-20T00:28:30;7.93;;;3.00;;
75626;SDS011;67372;49.404;11.034;2023-12-20T00:30:57;5.10;;;2.90;;
75626;SDS011;67372;49.404;11.034;2023-12-20T00:33:23;5.10;;;2.83;;
75626;SDS011;67372;49.404;11.034;2023-12-20T00:35:50;5.55;;;3.17;;
75626;SDS011;67372;49.404;11.034;2023-12-20T00:38:16;7.28;;;2.65;;
75626;SDS011;67372;49.404;11.034;2023-12-20T00:40:42;5.38;;;2.97;;
75626;SDS011;67372;49.404;11.034;2023-12-20T00:43:09;5.07;;;2.78;;
75626;SDS011;67372;49.404;11.034;2023-12-20T00:45:35;6.20;;;2.75;;
75626;SDS011;67372;49.404;11.034;2023-12-20T00:48:02;3.92;;;2.42;;
75626;SDS011;67372;49.404;11.034;2023-12-20T00:50:28;4.40;;;2.72;;
75626;SDS011;67372;49.404;11.034;2023-12-20T00:52:55;4.65;;;2.25;;
75626;SDS011;67372;49.404;11.034;2023-12-20T00:55:22;4.30;;;2.72;;
75626;SDS011;67372;49.404;11.034;2023-12-20T00:57:48;3.95;;;2.45;;
75626;SDS011;67372;49.404;11.034;2023-12-20T01:00:15;3.33;;;2.10;;
75626;SDS011;67372;49.404;11.034;2023-12-20T01:02:41;3.28;;;2.17;;
75626;SDS011;67372;49.404;11.034;2023-12-20T01:05:08;3.65;;;2.10;;
75626;SDS011;67372;49.404;11.034;2023-12-20T01:07:34;3.63;;;2.00;;
75626;SDS011;67372;49.404;11.034;2023-12-20T01:10:01;3.28;;;2.08;;
75626;SDS011;67372;49.404;11.034;2023-12-20T01:12:27;3.88;;;2.30;;
75626;SDS011;67372;49.404;11.034;2023-12-20T01:14:54;4.45;;;2.33;;
75626;SDS011;67372;49.404;11.034;2023-12-20T01:17:20;4.07;;;2.00;;
75626;SDS011;67372;49.404;11.034;2023-12-20T01:19:46;3.75;;;2.38;;
75626;SDS011;67372;49.404;11.034;2023-12-20T01:22:13;3.45;;;1.85;;
75626;SDS011;67372;49.404;11.034;2023-12-20T01:24:39;4.53;;;2.17;;
75626;SDS011;67372;49.404;11.034;2023-12-20T01:27:06;2.55;;;1.60;;
75626;SDS011;67372;49.404;11.034;2023-12-20T01:29:32;3.53;;;1.75;;
75626;SDS011;67372;49.404;11.034;2023-12-20T01:31:59;3.20;;;1.75;;
75626;SDS011;67372;49.404;11.034;2023-12-20T01:34:25;3.13;;;1.60;;
75626;SDS011;67372;49.404;11.034;2023-12-20T01:36:51;2.80;;;1.60;;
75626;SDS011;67372;49.404;11.034;2023-12-20T01:39:18;2.65;;;1.48;;
75626;SDS011;67372;49.404;11.034;2023-12-20T01:41:55;3.15;;;1.45;;
75626;SDS011;67372;49.404;11.034;2023-12-20T01:44:21;1.67;;;0.98;;
75626;SDS011;67372;49.404;11.034;2023-12-20T01:46:47;1.92;;;0.98;;
75626;SDS011;67372;49.404;11.034;2023-12-20T01:49:14;1.95;;;0.93;;
75626;SDS011;67372;49.404;11.034;2023-12-20T01:51:41;1.92;;;1.10;;
75626;SDS011;67372;49.404;11.034;2023-12-20T01:54:09;1.92;;;1.00;;
75626;SDS011;67372;49.404;11.034;2023-12-20T01:56:35;1.58;;;1.00;;
75626;SDS011;67372;49.404;11.034;2023-12-20T01:59:02;1.38;;;0.80;;
75626;SDS011;67372;49.404;11.034;2023-12-20T02:01:29;1.63;;;0.90;;
75626;SDS011;67372;49.404;11.034;2023-12-20T02:03:56;2.10;;;0.90;;
75626;SDS011;67372;49.404;11.034;2023-12-20T02:06:23;1.33;;;0.80;;
75626;SDS011;67372;49.404;11.034;2023-12-20T02:08:55;1.50;;;0.73;;
75626;SDS011;67372;49.404;11.034;2023-12-20T02:11:21;0.98;;;0.70;;
75626;SDS011;67372;49.404;11.034;2023-12-20T02:13:48;1.17;;;0.70;;
75626;SDS011;67372;49.404;11.034;2023-12-20T02:16:14;1.27;;;0.80;;
75626;SDS011;67372;49.404;11.034;2023-12-20T02:18:42;0.75;;;0.60;;
75626;SDS011;67372;49.404;11.034;2023-12-20T02:21:09;1.45;;;0.90;;
75626;SDS011;67372;49.404;11.034;2023-12-20T02:23:36;1.13;;;0.70;;
75626;SDS011;67372;49.404;11.034;2023-12-20T02:26:02;0.88;;;0.50;;
75626;SDS011;67372;49.404;11.034;2023-12-20T02:28:30;1.00;;;0.70;;
75626;SDS011;67372;49.404;11.034;2023-12-20T02:33:24;0.70;;;0.50;;
75626;SDS011;67372;49.404;11.034;2023-12-20T02:35:51;0.70;;;0.70;;
75626;SDS011;67372;49.404;11.034;2023-12-20T02:38:17;1.30;;;0.60;;
75626;SDS011;67372;49.404;11.034;2023-12-20T02:40:44;1.02;;;0.60;;
75626;SDS011;67372;49.404;11.034;2023-12-20T02:43:15;0.80;;;0.40;;
75626;SDS011;67372;49.404;11.034;2023-12-20T02:45:42;0.95;;;0.68;;
75626;SDS011;67372;49.404;11.034;2023-12-20T02:48:08;0.75;;;0.40;;
75626;SDS011;67372;49.404;11.034;2023-12-20T02:50:35;1.20;;;0.60;;
75626;SDS011;67372;49.404;11.034;2023-12-20T02:53:01;0.70;;;0.40;;
75626;SDS011;67372;49.404;11.034;2023-12-20T02:55:27;0.98;;;0.70;;
75626;SDS011;67372;49.404;11.034;2023-12-20T02:57:54;2.15;;;0.47;;
75626;SDS011;67372;49.404;11.034;2023-12-20T03:00:20;0.70;;;0.40;;
75626;SDS011;67372;49.404;11.034;2023-12-20T03:02:47;0.60;;;0.50;;
75626;SDS011;67372;49.404;11.034;2023-12-20T03:05:13;1.20;;;0.43;;
75626;SDS011;67372;49.404;11.034;2023-12-20T03:07:40;0.68;;;0.50;;
75626;SDS011;67372;49.404;11.034;2023-12-20T03:10:06;0.28;;;0.28;;
75626;SDS011;67372;49.404;11.034;2023-12-20T03:12:45;0.40;;;0.40;;
75626;SDS011;67372;49.404;11.034;2023-12-20T03:15:11;0.77;;;0.50;;
75626;SDS011;67372;49.404;11.034;2023-12-20T03:17:38;0.40;;;0.40;;
75626;SDS011;67372;49.404;11.034;2023-12-20T03:20:05;0.52;;;0.35;;
75626;SDS011;67372;49.404;11.034;2023-12-20T03:22:32;0.40;;;0.30;;
75626;SDS011;67372;49.404;11.034;2023-12-20T03:24:58;0.60;;;0.45;;
75626;SDS011;67372;49.404;11.034;2023-12-20T03:27:24;0.60;;;0.60;;
75626;SDS011;67372;49.404;11.034;2023-12-20T03:29:51;0.65;;;0.55;;
75626;SDS011;67372;49.404;11.034;2023-12-20T03:32:17;0.52;;;0.25;;
75626;SDS011;67372;49.404;11.034;2023-12-20T03:34:44;0.43;;;0.32;;
75626;SDS011;67372;49.404;11.034;2023-12-20T03:37:10;0.60;;;0.40;;
75626;SDS011;67372;49.404;11.034;2023-12-20T03:39:36;1.08;;;0.50;;
75626;SDS011;67372;49.404;11.034;2023-12-20T03:42:03;0.70;;;0.60;;
75626;SDS011;67372;49.404;11.034;2023-12-20T03:44:30;1.42;;;0.60;;
75626;SDS011;67372;49.404;11.034;2023-12-20T03:46:56;0.85;;;0.70;;
75626;SDS011;67372;49.404;11.034;2023-12-20T03:49:22;2.13;;;0.60;;
75626;SDS011;67372;49.404;11.034;2023-12-20T03:51:49;1.25;;;0.60;;
75626;SDS011;67372;49.404;11.034;2023-12-20T03:54:15;0.95;;;0.68;;
75626;SDS011;67372;49.404;11.034;2023-12-20T03:56:42;1.85;;;0.70;;
75626;SDS011;67372;49.404;11.034;2023-12-20T03:59:08;0.98;;;0.60;;
75626;SDS011;67372;49.404;11.034;2023-12-20T04:01:35;0.90;;;0.75;;
75626;SDS011;67372;49.404;11.034;2023-12-20T04:04:01;0.95;;;0.85;;
75626;SDS011;67372;49.404;11.034;2023-12-20T04:06:27;1.48;;;0.75;;
75626;SDS011;67372;49.404;11.034;2023-12-20T04:08:54;1.40;;;0.90;;
75626;SDS011;67372;49.404;11.034;2023-12-20T04:11:20;1.40;;;0.68;;
75626;SDS011;67372;49.404;11.034;2023-12-20T04:13:47;1.20;;;0.70;;
75626;SDS011;67372;49.404;11.034;2023-12-20T04:16:13;1.00;;;0.80;;
75626;SDS011;67372;49.404;11.034;2023-12-20T04:18:40;1.83;;;0.70;;
75626;SDS011;67372;49.404;11.034;2023-12-20T04:21:06;1.20;;;0.93;;
75626;SDS011;67372;49.404;11.034;2023-12-20T04:23:32;1.38;;;0.93;;
75626;SDS011;67372;49.404;11.034;2023-12-20T04:25:59;1.27;;;0.80;;
75626;SDS011;67372;49.404;11.034;2023-12-20T04:28:25;0.95;;;0.77;;
75626;SDS011;67372;49.404;11.034;2023-12-20T04:30:52;0.90;;;0.77;;
75626;SDS011;67372;49.404;11.034;2023-12-20T04:33:18;1.38;;;0.93;;
75626;SDS011;67372;49.404;11.034;2023-12-20T04:35:45;1.38;;;0.95;;
75626;SDS011;67372;49.404;11.034;2023-12-20T04:38:11;1.20;;;0.90;;
75626;SDS011;67372;49.404;11.034;2023-12-20T04:40:37;1.02;;;0.82;;
75626;SDS011;67372;49.404;11.034;2023-12-20T04:43:04;0.90;;;0.80;;
75626;SDS011;67372;49.404;11.034;2023-12-20T04:45:30;1.52;;;1.00;;
75626;SDS011;67372;49.404;11.034;2023-12-20T04:47:57;0.98;;;0.90;;
75626;SDS011;67372;49.404;11.034;2023-12-20T04:50:23;1.08;;;0.73;;
75626;SDS011;67372;49.404;11.034;2023-12-20T04:52:50;1.42;;;1.00;;
75626;SDS011;67372;49.404;11.034;2023-12-20T04:55:16;1.35;;;1.00;;
75626;SDS011;67372;49.404;11.034;2023-12-20T04:57:43;1.38;;;0.88;;
75626;SDS011;67372;49.404;11.034;2023-12-20T05:00:10;0.85;;;0.73;;
75626;SDS011;67372;49.404;11.034;2023-12-20T05:02:37;1.70;;;1.05;;
75626;SDS011;67372;49.404;11.034;2023-12-20T05:05:03;1.15;;;0.85;;
75626;SDS011;67372;49.404;11.034;2023-12-20T05:07:30;1.15;;;0.90;;
75626;SDS011;67372;49.404;11.034;2023-12-20T05:09:57;1.52;;;1.20;;
75626;SDS011;67372;49.404;11.034;2023-12-20T05:12:23;1.23;;;0.80;;
75626;SDS011;67372;49.404;11.034;2023-12-20T05:14:50;0.85;;;0.60;;
75626;SDS011;67372;49.404;11.034;2023-12-20T05:17:18;1.25;;;0.75;;
75626;SDS011;67372;49.404;11.034;2023-12-20T05:19:44;1.42;;;0.82;;
75626;SDS011;67372;49.404;11.034;2023-12-20T05:22:10;1.17;;;0.90;;
75626;SDS011;67372;49.404;11.034;2023-12-20T05:24:37;2.65;;;1.20;;
75626;SDS011;67372;49.404;11.034;2023-12-20T05:27:04;1.27;;;0.90;;
75626;SDS011;67372;49.404;11.034;2023-12-20T05:29:30;1.42;;;0.80;;
75626;SDS011;67372;49.404;11.034;2023-12-20T05:31:58;0.63;;;0.55;;
75626;SDS011;67372;49.404;11.034;2023-12-20T05:34:24;1.00;;;0.52;;
75626;SDS011;67372;49.404;11.034;2023-12-20T05:36:50;1.05;;;0.60;;
75626;SDS011;67372;49.404;11.034;2023-12-20T05:39:17;1.30;;;0.70;;
75626;SDS011;67372;49.404;11.034;2023-12-20T05:41:43;1.60;;;0.90;;
75626;SDS011;67372;49.404;11.034;2023-12-20T05:44:10;2.08;;;1.20;;
75626;SDS011;67372;49.404;11.034;2023-12-20T05:46:36;1.15;;;0.90;;
75626;SDS011;67372;49.404;11.034;2023-12-20T05:49:02;1.25;;;1.00;;
75626;SDS011;67372;49.404;11.034;2023-12-20T05:51:29;1.65;;;0.93;;
75626;SDS011;67372;49.404;11.034;2023-12-20T05:53:55;1.60;;;0.90;;
75626;SDS011;67372;49.404;11.034;2023-12-20T05:56:22;1.13;;;0.90;;
75626;SDS011;67372;49.404;11.034;2023-12-20T05:58:48;1.30;;;0.82;;
75626;SDS011;67372;49.404;11.034;2023-12-20T06:01:15;0.95;;;0.80;;
75626;SDS011;67372;49.404;11.034;2023-12-20T06:03:41;1.38;;;1.00;;
75626;SDS011;67372;49.404;11.034;2023-12-20T06:06:08;1.20;;;1.08;;
75626;SDS011;67372;49.404;11.034;2023-12-20T06:11:08;1.63;;;1.02;;
75626;SDS011;67372;49.404;11.034;2023-12-20T06:13:35;1.67;;;1.20;;
75626;SDS011;67372;49.404;11.034;2023-12-20T06:16:01;1.45;;;1.00;;
75626;SDS011;67372;49.404;11.034;2023-12-20T06:18:28;2.15;;;1.38;;
75626;SDS011;67372;49.404;11.034;2023-12-20T06:21:18;1.75;;;0.98;;
75626;SDS011;67372;49.404;11.034;2023-12-20T06:23:44;2.83;;;1.42;;
75626;SDS011;67372;49.404;11.034;2023-12-20T06:26:16;1.83;;;1.27;;
75626;SDS011;67372;49.404;11.034;2023-12-20T06:28:42;1.80;;;1.27;;
75626;SDS011;67372;49.404;11.034;2023-12-20T06:31:09;3.35;;;1.48;;
75626;SDS011;67372;49.404;11.034;2023-12-20T06:33:35;1.55;;;1.27;;
75626;SDS011;67372;49.404;11.034;2023-12-20T06:36:02;2.58;;;1.30;;
75626;SDS011;67372;49.404;11.034;2023-12-20T06:38:29;2.13;;;1.65;;
75626;SDS011;67372;49.404;11.034;2023-12-20T06:40:55;3.63;;;1.42;;
75626;SDS011;67372;49.404;11.034;2023-12-20T06:43:21;3.22;;;1.75;;
75626;SDS011;67372;49.404;11.034;2023-12-20T06:46:08;2.22;;;1.70;;
75626;SDS011;67372;49.404;11.034;2023-12-20T06:48:34;2.20;;;1.60;;
75626;SDS011;67372;49.404;11.034;2023-12-20T06:51:01;2.13;;;1.50;;
75626;SDS011;67372;49.404;11.034;2023-12-20T06:53:28;2.88;;;1.80;;
75626;SDS011;67372;49.404;11.034;2023-12-20T06:55:54;4.35;;;1.95;;
75626;SDS011;67372;49.404;11.034;2023-12-20T06:58:21;3.28;;;1.98;;
75626;SDS011;67372;49.404;11.034;2023-12-20T07:00:48;2.50;;;1.77;;
75626;SDS011;67372;49.404;11.034;2023-12-20T07:03:15;2.85;;;1.65;;
75626;SDS011;67372;49.404;11.034;2023-12-20T07:05:41;3.22;;;1.98;;
75626;SDS011;67372;49.404;11.034;2023-12-20T07:08:07;3.40;;;2.20;;
75626;SDS011;67372;49.404;11.034;2023-12-20T07:10:34;2.97;;;1.85;;
75626;SDS011;67372;49.404;11.034;2023-12-20T07:13:00;3.58;;;1.88;;
75626;SDS011;67372;49.404;11.034;2023-12-20T07:15:27;2.65;;;2.00;;
75626;SDS011;67372;49.404;11.034;2023-12-20T07:17:53;2.78;;;1.98;;
75626;SDS011;67372;49.404;11.034;2023-12-20T07:20:20;3.20;;;1.83;;
75626;SDS011;67372;49.404;11.034;2023-12-20T07:22:47;3.50;;;2.15;;
75626;SDS011;67372;49.404;11.034;2023-12-20T07:25:13;2.70;;;2.00;;
75626;SDS011;67372;49.404;11.034;2023-12-20T07:27:40;2.80;;;1.90;;
75626;SDS011;67372;49.404;11.034;2023-12-20T07:30:09;3.47;;;1.92;;
75626;SDS011;67372;49.404;11.034;2023-12-20T07:32:36;3.40;;;2.25;;
75626;SDS011;67372;49.404;11.034;2023-12-20T07:35:02;3.65;;;2.22;;
75626;SDS011;67372;49.404;11.034;2023-12-20T07:37:29;3.17;;;2.15;;
75626;SDS011;67372;49.404;11.034;2023-12-20T07:39:56;3.33;;;2.40;;
75626;SDS011;67372;49.404;11.034;2023-12-20T07:42:23;3.83;;;2.42;;
75626;SDS011;67372;49.404;11.034;2023-12-20T07:44:49;4.60;;;2.80;;
75626;SDS011;67372;49.404;11.034;2023-12-20T07:47:15;4.03;;;2.58;;
75626;SDS011;67372;49.404;11.034;2023-12-20T07:49:42;3.17;;;2.10;;
75626;SDS011;67372;49.404;11.034;2023-12-20T07:52:08;3.58;;;2.38;;
75626;SDS011;67372;49.404;11.034;2023-12-20T07:54:35;3.55;;;2.28;;
75626;SDS011;67372;49.404;11.034;2023-12-20T07:57:01;4.20;;;2.55;;
75626;SDS011;67372;49.404;11.034;2023-12-20T07:59:28;3.25;;;2.30;;
75626;SDS011;67372;49.404;11.034;2023-12-20T08:01:58;4.28;;;2.20;;
75626;SDS011;67372;49.404;11.034;2023-12-20T08:04:25;3.65;;;2.17;;
75626;SDS011;67372;49.404;11.034;2023-12-20T08:55:27;3.05;;;1.88;;
75626;SDS011;67372;49.404;11.034;2023-12-20T09:03:45;2.60;;;1.45;;
75626;SDS011;67372;49.404;11.034;2023-12-20T09:06:12;2.92;;;1.75;;
75626;SDS011;67372;49.404;11.034;2023-12-20T09:57:12;1.83;;;1.15;;
75626;SDS011;67372;49.404;11.034;2023-12-20T09:59:38;2.05;;;1.02;;
75626;SDS011;67372;49.404;11.034;2023-12-20T10:02:05;2.00;;;1.00;;
75626;SDS011;67372;49.404;11.034;2023-12-20T10:04:40;3.80;;;1.05;;
75626;SDS011;67372;49.404;11.034;2023-12-20T10:07:12;1.58;;;0.90;;
75626;SDS011;67372;49.404;11.034;2023-12-20T10:09:38;2.30;;;1.08;;
75626;SDS011;67372;49.404;11.034;2023-12-20T10:12:05;2.40;;;0.95;;
75626;SDS011;67372;49.404;11.034;2023-12-20T10:14:32;1.33;;;0.90;;
75626;SDS011;67372;49.404;11.034;2023-12-20T10:17:02;1.42;;;1.15;;
75626;SDS011;67372;49.404;11.034;2023-12-20T10:19:29;2.80;;;1.25;;
75626;SDS011;67372;49.404;11.034;2023-12-20T10:21:57;2.67;;;1.20;;
75626;SDS011;67372;49.404;11.034;2023-12-20T10:24:25;1.15;;;0.85;;
75626;SDS011;67372;49.404;11.034;2023-12-20T10:29:33;2.80;;;1.10;;
75626;SDS011;67372;49.404;11.034;2023-12-20T10:32:21;1.10;;;1.00;;
75626;SDS011;67372;49.404;11.034;2023-12-20T10:34:51;2.05;;;1.38;;
75626;SDS011;67372;49.404;11.034;2023-12-20T10:37:19;2.72;;;1.40;;
75626;SDS011;67372;49.404;11.034;2023-12-20T10:39:49;1.80;;;1.10;;
75626;SDS011;67372;49.404;11.034;2023-12-20T10:42:20;2.42;;;0.93;;
75626;SDS011;67372;49.404;11.034;2023-12-20T10:44:47;2.83;;;1.40;;
75626;SDS011;67372;49.404;11.034;2023-12-20T10:47:15;3.17;;;1.30;;
75626;SDS011;67372;49.404;11.034;2023-12-20T10:49:43;1.58;;;1.10;;
75626;SDS011;67372;49.404;11.034;2023-12-20T10:52:12;1.52;;;0.98;;
75626;SDS011;67372;49.404;11.034;2023-12-20T10:57:08;2.45;;;1.10;;
75626;SDS011;67372;49.404;11.034;2023-12-20T10:59:38;1.48;;;0.95;;
75626;SDS011;67372;49.404;11.034;2023-12-20T11:02:05;2.70;;;1.35;;
75626;SDS011;67372;49.404;11.034;2023-12-20T11:04:36;1.98;;;1.10;;
75626;SDS011;67372;49.404;11.034;2023-12-20T11:07:29;3.20;;;1.10;;
75626;SDS011;67372;49.404;11.034;2023-12-20T11:10:00;3.35;;;1.20;;
75626;SDS011;67372;49.404;11.034;2023-12-20T11:15:15;2.85;;;1.50;;
75626;SDS011;67372;49.404;11.034;2023-12-20T11:17:44;2.55;;;1.50;;
75626;SDS011;67372;49.404;11.034;2023-12-20T11:20:14;4.43;;;1.25;;
75626;SDS011;67372;49.404;11.034;2023-12-20T11:22:51;1.25;;;0.90;;
75626;SDS011;67372;49.404;11.034;2023-12-20T11:25:19;1.65;;;0.98;;
75626;SDS011;67372;49.404;11.034;2023-12-20T11:28:06;3.97;;;1.25;;
75626;SDS011;67372;49.404;11.034;2023-12-20T11:30:42;3.17;;;1.45;;
75626;SDS011;67372;49.404;11.034;2023-12-20T11:33:13;1.90;;;0.95;;
75626;SDS011;67372;49.404;11.034;2023-12-20T11:35:40;1.27;;;1.00;;
75626;SDS011;67372;49.404;11.034;2023-12-20T11:38:09;3.47;;;1.00;;
75626;SDS011;67372;49.404;11.034;2023-12-20T11:40:36;1.60;;;1.20;;
75626;SDS011;67372;49.404;11.034;2023-12-20T11:43:03;1.77;;;1.00;;
75626;SDS011;67372;49.404;11.034;2023-12-20T11:45:30;2.92;;;1.40;;
75626;SDS011;67372;49.404;11.034;2023-12-20T11:47:57;2.90;;;1.30;;
75626;SDS011;67372;49.404;11.034;2023-12-20T11:50:24;3.63;;;1.30;;
75626;SDS011;67372;49.404;11.034;2023-12-20T11:52:52;3.53;;;1.17;;
75626;SDS011;67372;49.404;11.034;2023-12-20T11:55:19;3.33;;;1.70;;
75626;SDS011;67372;49.404;11.034;2023-12-20T11:57:46;4.00;;;1.77;;
75626;SDS011;67372;49.404;11.034;2023-12-20T12:00:13;4.50;;;1.52;;
75626;SDS011;67372;49.404;11.034;2023-12-20T12:02:40;4.40;;;1.60;;
75626;SDS011;67372;49.404;11.034;2023-12-20T12:05:07;5.03;;;1.83;;
75626;SDS011;67372;49.404;11.034;2023-12-20T12:07:34;3.90;;;1.70;;
75626;SDS011;67372;49.404;11.034;2023-12-20T12:10:01;2.78;;;1.30;;
75626;SDS011;67372;49.404;11.034;2023-12-20T12:12:32;3.13;;;1.40;;
75626;SDS011;67372;49.404;11.034;2023-12-20T12:14:58;2.55;;;1.50;;
75626;SDS011;67372;49.404;11.034;2023-12-20T12:17:25;2.80;;;1.50;;
75626;SDS011;67372;49.404;11.034;2023-12-20T12:19:51;2.47;;;1.48;;
75626;SDS011;67372;49.404;11.034;2023-12-20T12:22:29;3.15;;;1.33;;
75626;SDS011;67372;49.404;11.034;2023-12-20T12:24:58;6.45;;;1.85;;
75626;SDS011;67372;49.404;11.034;2023-12-20T12:27:25;2.65;;;1.35;;
75626;SDS011;67372;49.404;11.034;2023-12-20T12:32:30;2.00;;;1.13;;
75626;SDS011;67372;49.404;11.034;2023-12-20T12:34:57;1.98;;;1.08;;
75626;SDS011;67372;49.404;11.034;2023-12-20T12:37:23;3.38;;;1.40;;
75626;SDS011;67372;49.404;11.034;2023-12-20T12:39:52;3.85;;;1.67;;
75626;SDS011;67372;49.404;11.034;2023-12-20T12:42:19;2.47;;;1.30;;
75626;SDS011;67372;49.404;11.034;2023-12-20T12:44:46;4.57;;;1.80;;
75626;SDS011;67372;49.404;11.034;2023-12-20T12:47:12;3.60;;;1.98;;
75626;SDS011;67372;49.404;11.034;2023-12-20T12:49:40;2.80;;;1.30;;
75626;SDS011;67372;49.404;11.034;2023-12-20T12:52:07;3.22;;;1.70;;
75626;SDS011;67372;49.404;11.034;2023-12-20T12:54:33;2.90;;;1.60;;
75626;SDS011;67372;49.404;11.034;2023-12-20T12:57:00;2.65;;;1.50;;
75626;SDS011;67372;49.404;11.034;2023-12-20T12:59:26;2.85;;;1.38;;
75626;SDS011;67372;49.404;11.034;2023-12-20T13:01:53;3.03;;;1.35;;
75626;SDS011;67372;49.404;11.034;2023-12-20T13:04:19;2.88;;;1.40;;
75626;SDS011;67372;49.404;11.034;2023-12-20T13:06:46;4.60;;;2.08;;
75626;SDS011;67372;49.404;11.034;2023-12-20T13:09:12;3.13;;;1.50;;
75626;SDS011;67372;49.404;11.034;2023-12-20T13:11:38;3.92;;;2.03;;
75626;SDS011;67372;49.404;11.034;2023-12-20T13:14:05;4.55;;;1.67;;
75626;SDS011;67372;49.404;11.034;2023-12-20T13:16:31;4.38;;;1.70;;
75626;SDS011;67372;49.404;11.034;2023-12-20T13:18:58;2.42;;;1.77;;
75626;SDS011;67372;49.404;11.034;2023-12-20T13:21:25;4.15;;;1.38;;
75626;SDS011;67372;49.404;11.034;2023-12-20T13:23:51;4.47;;;1.80;;
75626;SDS011;67372;49.404;11.034;2023-12-20T13:26:18;2.85;;;1.30;;
75626;SDS011;67372;49.404;11.034;2023-12-20T13:28:44;2.42;;;1.60;;
75626;SDS011;67372;49.404;11.034;2023-12-20T13:31:11;2.78;;;1.45;;
75626;SDS011;67372;49.404;11.034;2023-12-20T13:33:37;4.20;;;1.52;;
75626;SDS011;67372;49.404;11.034;2023-12-20T13:36:04;3.30;;;1.55;;
75626;SDS011;67372;49.404;11.034;2023-12-20T13:38:33;3.65;;;1.50;;
75626;SDS011;67372;49.404;11.034;2023-12-20T13:41:01;2.50;;;1.30;;
75626;SDS011;67372;49.404;11.034;2023-12-20T13:45:54;3.42;;;1.27;;
75626;SDS011;67372;49.404;11.034;2023-12-20T13:48:20;2.13;;;1.42;;
75626;SDS011;67372;49.404;11.034;2023-12-20T13:50:46;6.35;;;1.90;;
75626;SDS011;67372;49.404;11.034;2023-12-20T13:53:13;3.58;;;1.30;;
75626;SDS011;67372;49.404;11.034;2023-12-20T13:55:40;3.22;;;1.50;;
75626;SDS011;67372;49.404;11.034;2023-12-20T13:58:06;3.80;;;1.50;;
75626;SDS011;67372;49.404;11.034;2023-12-20T14:00:33;5.00;;;1.50;;
75626;SDS011;67372;49.404;11.034;2023-12-20T14:03:00;2.67;;;1.60;;
75626;SDS011;67372;49.404;11.034;2023-12-20T14:05:27;3.67;;;1.73;;
75626;SDS011;67372;49.404;11.034;2023-12-20T14:10:21;1.88;;;1.30;;
75626;SDS011;67372;49.404;11.034;2023-12-20T14:12:47;3.17;;;1.63;;
75626;SDS011;67372;49.404;11.034;2023-12-20T14:15:16;4.50;;;1.40;;
75626;SDS011;67372;49.404;11.034;2023-12-20T14:17:44;3.20;;;1.60;;
75626;SDS011;67372;49.404;11.034;2023-12-20T14:20:11;2.72;;;1.77;;
75626;SDS011;67372;49.404;11.034;2023-12-20T14:22:38;2.60;;;1.70;;
75626;SDS011;67372;49.404;11.034;2023-12-20T14:25:05;3.00;;;1.25;;
75626;SDS011;67372;49.404;11.034;2023-12-20T14:27:32;4.15;;;1.48;;
75626;SDS011;67372;49.404;11.034;2023-12-20T14:29:58;7.05;;;1.80;;
75626;SDS011;67372;49.404;11.034;2023-12-20T14:32:25;2.75;;;1.30;;
75626;SDS011;67372;49.404;11.034;2023-12-20T14:34:51;4.65;;;1.20;;
75626;SDS011;67372;49.404;11.034;2023-12-20T14:37:18;2.75;;;1.50;;
75626;SDS011;67372;49.404;11.034;2023-12-20T14:39:44;2.88;;;1.30;;
75626;SDS011;67372;49.404;11.034;2023-12-20T14:42:11;3.95;;;1.40;;
75626;SDS011;67372;49.404;11.034;2023-12-20T14:44:37;1.80;;;1.10;;
75626;SDS011;67372;49.404;11.034;2023-12-20T14:47:04;3.28;;;1.35;;
75626;SDS011;67372;49.404;11.034;2023-12-20T14:49:31;2.85;;;1.40;;
75626;SDS011;67372;49.404;11.034;2023-12-20T14:51:57;5.32;;;1.63;;
75626;SDS011;67372;49.404;11.034;2023-12-20T14:54:24;3.42;;;1.50;;
75626;SDS011;67372;49.404;11.034;2023-12-20T14:56:50;2.38;;;1.20;;
75626;SDS011;67372;49.404;11.034;2023-12-20T14:59:17;2.72;;;1.52;;
75626;SDS011;67372;49.404;11.034;2023-12-20T15:01:44;4.93;;;1.48;;
75626;SDS011;67372;49.404;11.034;2023-12-20T15:04:10;3.15;;;1.50;;
75626;SDS011;67372;49.404;11.034;2023-12-20T15:06:37;2.80;;;1.60;;
75626;SDS011;67372;49.404;11.034;2023-12-20T15:09:03;4.13;;;1.65;;
75626;SDS011;67372;49.404;11.034;2023-12-20T15:11:30;3.25;;;1.60;;
75626;SDS011;67372;49.404;11.034;2023-12-20T15:13:57;3.33;;;1.50;;
75626;SDS011;67372;49.404;11.034;2023-12-20T15:16:23;5.18;;;1.60;;
75626;SDS011;67372;49.404;11.034;2023-12-20T15:18:51;2.60;;;1.75;;
75626;SDS011;67372;49.404;11.034;2023-12-20T15:21:18;4.50;;;1.33;;
75626;SDS011;67372;49.404;11.034;2023-12-20T15:23:44;3.42;;;1.50;;
75626;SDS011;67372;49.404;11.034;2023-12-20T15:26:11;3.25;;;1.48;;
75626;SDS011;67372;49.404;11.034;2023-12-20T15:28:38;4.25;;;1.55;;
75626;SDS011;67372;49.404;11.034;2023-12-20T15:31:04;3.67;;;2.05;;
75626;SDS011;67372;49.404;11.034;2023-12-20T15:33:31;6.28;;;1.92;;
75626;SDS011;67372;49.404;11.034;2023-12-20T15:35:57;3.05;;;1.60;;
75626;SDS011;67372;49.404;11.034;2023-12-20T15:38:24;4.95;;;1.67;;
75626;SDS011;67372;49.404;11.034;2023-12-20T15:40:50;4.13;;;2.03;;
75626;SDS011;67372;49.404;11.034;2023-12-20T15:43:18;3.05;;;1.95;;
75626;SDS011;67372;49.404;11.034;2023-12-20T15:45:44;5.35;;;1.77;;
75626;SDS011;67372;49.404;11.034;2023-12-20T15:48:10;3.25;;;2.00;;
75626;SDS011;67372;49.404;11.034;2023-12-20T15:50:37;3.75;;;1.92;;
75626;SDS011;67372;49.404;11.034;2023-12-20T15:53:03;4.40;;;2.03;;
75626;SDS011;67372;49.404;11.034;2023-12-20T15:55:30;5.50;;;1.95;;
75626;SDS011;67372;49.404;11.034;2023-12-20T15:57:56;6.35;;;2.25;;
75626;SDS011;67372;49.404;11.034;2023-12-20T16:00:23;3.20;;;1.48;;
75626;SDS011;67372;49.404;11.034;2023-12-20T16:02:50;6.00;;;1.88;;
75626;SDS011;67372;49.404;11.034;2023-12-20T16:05:16;3.90;;;1.90;;
75626;SDS011;67372;49.404;11.034;2023-12-20T16:07:43;4.10;;;1.75;;
75626;SDS011;67372;49.404;11.034;2023-12-20T16:10:10;4.70;;;1.90;;
75626;SDS011;67372;49.404;11.034;2023-12-20T16:12:36;2.92;;;1.70;;
75626;SDS011;67372;49.404;11.034;2023-12-20T16:15:03;3.65;;;1.67;;
75626;SDS011;67372;49.404;11.034;2023-12-20T16:17:30;3.22;;;1.58;;
75626;SDS011;67372;49.404;11.034;2023-12-20T16:19:57;3.17;;;1.60;;
75626;SDS011;67372;49.404;11.034;2023-12-20T16:22:23;2.83;;;1.60;;
75626;SDS011;67372;49.404;11.034;2023-12-20T16:24:50;2.88;;;1.63;;
75626;SDS011;67372;49.404;11.034;2023-12-20T16:27:16;3.35;;;1.75;;
75626;SDS011;67372;49.404;11.034;2023-12-20T16:29:42;3.22;;;1.55;;
75626;SDS011;67372;49.404;11.034;2023-12-20T16:32:09;6.15;;;1.90;;
75626;SDS011;67372;49.404;11.034;2023-12-20T16:34:35;4.72;;;1.60;;
75626;SDS011;67372;49.404;11.034;2023-12-20T16:37:02;4.45;;;1.70;;